sensor_id;sensor_type;location;lat;lon;timestamp;temperature;humidity
16287;DHT22;8251;53.568;10.018;2023-05-20T00:01:55;16.40;49.30
16287;DHT22;8251;53.568;10.018;2023-05-20T00:04:22;16.40;49.30
16287;DHT22;8251;53.568;10.018;2023-05-20T00:06:49;16.30;49.30
16287;DHT22;8251;53.568;10.018;2023-05-20T00:09:19;16.30;49.40
16287;DHT22;8251;53.568;10.018;2023-05-20T00:11:48;16.30;49.30
16287;DHT22;8251;53.568;10.018;2023-05-20T00:14:15;16.30;49.30
16287;DHT22;8251;53.568;10.018;2023-05-20T00:16:41;16.30;49.50
16287;DHT22;8251;53.568;10.018;2023-05-20T00:19:08;16.20;49.40
16287;DHT22;8251;53.568;10.018;2023-05-20T00:21:35;16.20;49.40
16287;DHT22;8251;53.568;10.018;2023-05-20T00:24:02;16.20;49.60
16287;DHT22;8251;53.568;10.018;2023-05-20T00:26:29;16.20;49.80
16287;DHT22;8251;53.568;10.018;2023-05-20T00:28:57;16.20;49.90
16287;DHT22;8251;53.568;10.018;2023-05-20T00:31:24;16.20;49.80
16287;DHT22;8251;53.568;10.018;2023-05-20T00:33:51;16.20;49.80
16287;DHT22;8251;53.568;10.018;2023-05-20T00:36:19;16.20;50.40
16287;DHT22;8251;53.568;10.018;2023-05-20T00:38:47;16.20;49.80
16287;DHT22;8251;53.568;10.018;2023-05-20T00:41:14;16.20;49.70
16287;DHT22;8251;53.568;10.018;2023-05-20T00:43:44;16.20;49.60
16287;DHT22;8251;53.568;10.018;2023-05-20T00:46:13;16.20;49.70
16287;DHT22;8251;53.568;10.018;2023-05-20T00:48:42;16.20;49.60
16287;DHT22;8251;53.568;10.018;2023-05-20T00:51:09;16.10;49.60
16287;DHT22;8251;53.568;10.018;2023-05-20T00:53:37;16.10;49.80
16287;DHT22;8251;53.568;10.018;2023-05-20T00:56:05;16.10;49.90
16287;DHT22;8251;53.568;10.018;2023-05-20T00:58:33;16.10;49.90
16287;DHT22;8251;53.568;10.018;2023-05-20T01:01:01;16.00;50.00
16287;DHT22;8251;53.568;10.018;2023-05-20T01:03:29;16.00;50.00
16287;DHT22;8251;53.568;10.018;2023-05-20T01:05:56;16.00;50.00
16287;DHT22;8251;53.568;10.018;2023-05-20T01:08:24;15.90;50.10
16287;DHT22;8251;53.568;10.018;2023-05-20T01:10:55;15.90;50.40
16287;DHT22;8251;53.568;10.018;2023-05-20T01:13:28;15.90;50.40
16287;DHT22;8251;53.568;10.018;2023-05-20T01:15:57;15.90;50.30
16287;DHT22;8251;53.568;10.018;2023-05-20T01:18:31;16.00;50.50
16287;DHT22;8251;53.568;10.018;2023-05-20T01:21:05;15.90;50.70
16287;DHT22;8251;53.568;10.018;2023-05-20T01:23:39;15.90;50.90
16287;DHT22;8251;53.568;10.018;2023-05-20T01:26:06;15.90;50.90
16287;DHT22;8251;53.568;10.018;2023-05-20T01:28:34;15.90;51.00
16287;DHT22;8251;53.568;10.018;2023-05-20T01:31:04;15.90;51.10
16287;DHT22;8251;53.568;10.018;2023-05-20T01:33:34;15.90;51.40
16287;DHT22;8251;53.568;10.018;2023-05-20T01:36:02;15.90;51.40
16287;DHT22;8251;53.568;10.018;2023-05-20T01:38:30;15.80;51.50
16287;DHT22;8251;53.568;10.018;2023-05-20T01:40:58;15.80;51.60
16287;DHT22;8251;53.568;10.018;2023-05-20T01:43:27;15.80;51.70
16287;DHT22;8251;53.568;10.018;2023-05-20T01:45:54;15.80;51.60
16287;DHT22;8251;53.568;10.018;2023-05-20T01:48:21;15.70;51.80
16287;DHT22;8251;53.568;10.018;2023-05-20T01:50:48;15.70;51.80
16287;DHT22;8251;53.568;10.018;2023-05-20T01:53:15;15.70;51.90
16287;DHT22;8251;53.568;10.018;2023-05-20T01:55:42;15.70;52.00
16287;DHT22;8251;53.568;10.018;2023-05-20T01:58:10;15.70;52.10
16287;DHT22;8251;53.568;10.018;2023-05-20T02:00:37;15.70;52.30
16287;DHT22;8251;53.568;10.018;2023-05-20T02:03:04;15.60;52.40
16287;DHT22;8251;53.568;10.018;2023-05-20T02:05:32;15.60;52.70
16287;DHT22;8251;53.568;10.018;2023-05-20T02:07:59;15.60;53.20
16287;DHT22;8251;53.568;10.018;2023-05-20T02:10:26;15.60;53.60
16287;DHT22;8251;53.568;10.018;2023-05-20T02:12:53;15.60;54.10
16287;DHT22;8251;53.568;10.018;2023-05-20T02:15:21;15.60;54.70
16287;DHT22;8251;53.568;10.018;2023-05-20T02:17:48;15.60;55.10
16287;DHT22;8251;53.568;10.018;2023-05-20T02:20:15;15.60;55.40
16287;DHT22;8251;53.568;10.018;2023-05-20T02:22:42;15.60;56.00
16287;DHT22;8251;53.568;10.018;2023-05-20T02:25:09;15.60;56.40
16287;DHT22;8251;53.568;10.018;2023-05-20T02:27:36;15.50;57.10
16287;DHT22;8251;53.568;10.018;2023-05-20T02:30:06;15.50;57.30
16287;DHT22;8251;53.568;10.018;2023-05-20T02:32:36;15.50;57.60
16287;DHT22;8251;53.568;10.018;2023-05-20T02:35:03;15.50;58.00
16287;DHT22;8251;53.568;10.018;2023-05-20T02:37:30;15.50;58.40
16287;DHT22;8251;53.568;10.018;2023-05-20T02:39:57;15.40;58.90
16287;DHT22;8251;53.568;10.018;2023-05-20T02:42:25;15.40;59.10
16287;DHT22;8251;53.568;10.018;2023-05-20T02:44:52;15.40;59.40
16287;DHT22;8251;53.568;10.018;2023-05-20T02:47:23;15.40;59.50
16287;DHT22;8251;53.568;10.018;2023-05-20T02:49:52;15.40;59.60
16287;DHT22;8251;53.568;10.018;2023-05-20T02:52:19;15.30;59.70
16287;DHT22;8251;53.568;10.018;2023-05-20T02:54:46;15.30;60.20
16287;DHT22;8251;53.568;10.018;2023-05-20T02:57:14;15.30;60.10
16287;DHT22;8251;53.568;10.018;2023-05-20T02:59:41;15.30;60.50
16287;DHT22;8251;53.568;10.018;2023-05-20T03:02:07;15.20;60.60
16287;DHT22;8251;53.568;10.018;2023-05-20T03:04:34;15.30;60.60
16287;DHT22;8251;53.568;10.018;2023-05-20T03:07:05;15.20;60.60
16287;DHT22;8251;53.568;10.018;2023-05-20T03:09:33;15.20;61.70
16287;DHT22;8251;53.568;10.018;2023-05-20T03:12:00;15.30;61.00
16287;DHT22;8251;53.568;10.018;2023-05-20T03:14:27;15.20;61.20
16287;DHT22;8251;53.568;10.018;2023-05-20T03:16:54;15.30;61.10
16287;DHT22;8251;53.568;10.018;2023-05-20T03:19:21;15.20;61.10
16287;DHT22;8251;53.568;10.018;2023-05-20T03:21:48;15.20;61.20
16287;DHT22;8251;53.568;10.018;2023-05-20T03:24:17;15.30;61.40
16287;DHT22;8251;53.568;10.018;2023-05-20T03:26:44;15.20;61.40
16287;DHT22;8251;53.568;10.018;2023-05-20T03:29:11;15.20;61.80
16287;DHT22;8251;53.568;10.018;2023-05-20T03:31:38;15.20;61.80
16287;DHT22;8251;53.568;10.018;2023-05-20T03:34:06;15.20;61.80
16287;DHT22;8251;53.568;10.018;2023-05-20T03:36:33;15.20;61.90
16287;DHT22;8251;53.568;10.018;2023-05-20T03:39:00;15.20;62.10
16287;DHT22;8251;53.568;10.018;2023-05-20T03:41:31;15.20;62.20
16287;DHT22;8251;53.568;10.018;2023-05-20T03:43:58;15.20;62.30
16287;DHT22;8251;53.568;10.018;2023-05-20T03:46:25;15.20;62.40
16287;DHT22;8251;53.568;10.018;2023-05-20T03:48:53;15.20;62.60
16287;DHT22;8251;53.568;10.018;2023-05-20T03:51:19;15.20;62.90
16287;DHT22;8251;53.568;10.018;2023-05-20T03:53:47;15.20;63.10
16287;DHT22;8251;53.568;10.018;2023-05-20T03:56:14;15.20;63.30
16287;DHT22;8251;53.568;10.018;2023-05-20T03:58:42;15.20;63.60
16287;DHT22;8251;53.568;10.018;2023-05-20T04:01:09;15.10;64.00
16287;DHT22;8251;53.568;10.018;2023-05-20T04:03:37;15.10;64.40
16287;DHT22;8251;53.568;10.018;2023-05-20T04:06:05;15.10;64.60
16287;DHT22;8251;53.568;10.018;2023-05-20T04:08:32;15.10;64.80
16287;DHT22;8251;53.568;10.018;2023-05-20T04:11:01;15.10;65.20
16287;DHT22;8251;53.568;10.018;2023-05-20T04:13:30;15.10;65.20
16287;DHT22;8251;53.568;10.018;2023-05-20T04:15:59;15.20;65.40
16287;DHT22;8251;53.568;10.018;2023-05-20T04:18:27;15.20;65.50
16287;DHT22;8251;53.568;10.018;2023-05-20T04:20:56;15.20;65.60
16287;DHT22;8251;53.568;10.018;2023-05-20T04:23:24;15.20;65.90
16287;DHT22;8251;53.568;10.018;2023-05-20T04:25:52;15.20;66.20
16287;DHT22;8251;53.568;10.018;2023-05-20T04:28:19;15.20;66.40
16287;DHT22;8251;53.568;10.018;2023-05-20T04:30:48;15.20;66.60
16287;DHT22;8251;53.568;10.018;2023-05-20T04:33:16;15.20;66.70
16287;DHT22;8251;53.568;10.018;2023-05-20T04:35:43;15.20;66.60
16287;DHT22;8251;53.568;10.018;2023-05-20T04:38:13;15.20;67.10
16287;DHT22;8251;53.568;10.018;2023-05-20T04:40:41;15.20;67.10
16287;DHT22;8251;53.568;10.018;2023-05-20T04:43:08;15.30;67.20
16287;DHT22;8251;53.568;10.018;2023-05-20T04:45:35;15.20;67.50
16287;DHT22;8251;53.568;10.018;2023-05-20T04:48:02;15.30;67.80
16287;DHT22;8251;53.568;10.018;2023-05-20T04:50:32;15.20;67.80
16287;DHT22;8251;53.568;10.018;2023-05-20T04:52:59;15.30;68.10
16287;DHT22;8251;53.568;10.018;2023-05-20T04:55:26;15.30;68.10
16287;DHT22;8251;53.568;10.018;2023-05-20T04:57:53;15.30;68.30
16287;DHT22;8251;53.568;10.018;2023-05-20T05:00:20;15.40;68.20
16287;DHT22;8251;53.568;10.018;2023-05-20T05:02:48;15.40;68.20
16287;DHT22;8251;53.568;10.018;2023-05-20T05:05:15;15.50;68.30
16287;DHT22;8251;53.568;10.018;2023-05-20T05:07:43;15.50;69.20
16287;DHT22;8251;53.568;10.018;2023-05-20T05:10:11;15.50;68.30
16287;DHT22;8251;53.568;10.018;2023-05-20T05:12:38;15.60;68.50
16287;DHT22;8251;53.568;10.018;2023-05-20T05:15:06;15.60;68.40
16287;DHT22;8251;53.568;10.018;2023-05-20T05:17:33;15.70;68.30
16287;DHT22;8251;53.568;10.018;2023-05-20T05:20:01;15.70;68.30
16287;DHT22;8251;53.568;10.018;2023-05-20T05:22:28;15.70;68.40
16287;DHT22;8251;53.568;10.018;2023-05-20T05:24:56;15.80;68.40
16287;DHT22;8251;53.568;10.018;2023-05-20T05:27:23;15.80;68.40
16287;DHT22;8251;53.568;10.018;2023-05-20T05:29:51;15.80;68.50
16287;DHT22;8251;53.568;10.018;2023-05-20T05:32:17;15.80;68.40
16287;DHT22;8251;53.568;10.018;2023-05-20T05:34:44;15.80;68.40
16287;DHT22;8251;53.568;10.018;2023-05-20T05:37:11;15.80;68.50
16287;DHT22;8251;53.568;10.018;2023-05-20T05:39:39;15.80;68.50
16287;DHT22;8251;53.568;10.018;2023-05-20T05:42:08;15.90;68.80
16287;DHT22;8251;53.568;10.018;2023-05-20T05:44:35;15.90;68.50
16287;DHT22;8251;53.568;10.018;2023-05-20T05:47:02;15.90;68.30
16287;DHT22;8251;53.568;10.018;2023-05-20T05:49:30;16.00;68.10
16287;DHT22;8251;53.568;10.018;2023-05-20T05:51:57;16.00;68.20
16287;DHT22;8251;53.568;10.018;2023-05-20T05:54:24;16.10;68.20
16287;DHT22;8251;53.568;10.018;2023-05-20T05:56:52;16.10;68.20
16287;DHT22;8251;53.568;10.018;2023-05-20T05:59:22;16.10;68.20
16287;DHT22;8251;53.568;10.018;2023-05-20T06:01:49;16.20;68.10
16287;DHT22;8251;53.568;10.018;2023-05-20T06:04:16;16.30;68.00
16287;DHT22;8251;53.568;10.018;2023-05-20T06:06:44;16.30;67.70
16287;DHT22;8251;53.568;10.018;2023-05-20T06:09:13;16.30;67.80
16287;DHT22;8251;53.568;10.018;2023-05-20T06:11:40;16.40;67.70
16287;DHT22;8251;53.568;10.018;2023-05-20T06:14:08;16.40;67.40
16287;DHT22;8251;53.568;10.018;2023-05-20T06:16:37;16.50;67.10
16287;DHT22;8251;53.568;10.018;2023-05-20T06:19:04;16.60;67.00
16287;DHT22;8251;53.568;10.018;2023-05-20T06:21:31;16.60;66.70
16287;DHT22;8251;53.568;10.018;2023-05-20T06:23:58;16.70;66.60
16287;DHT22;8251;53.568;10.018;2023-05-20T06:26:25;16.70;66.30
16287;DHT22;8251;53.568;10.018;2023-05-20T06:28:52;16.70;66.20
16287;DHT22;8251;53.568;10.018;2023-05-20T06:31:19;16.80;66.00
16287;DHT22;8251;53.568;10.018;2023-05-20T06:33:48;16.80;65.70
16287;DHT22;8251;53.568;10.018;2023-05-20T06:36:17;16.90;65.40
16287;DHT22;8251;53.568;10.018;2023-05-20T06:38:46;17.10;65.20
16287;DHT22;8251;53.568;10.018;2023-05-20T06:41:14;17.20;64.80
16287;DHT22;8251;53.568;10.018;2023-05-20T06:43:41;17.30;64.40
16287;DHT22;8251;53.568;10.018;2023-05-20T06:46:09;17.40;64.00
16287;DHT22;8251;53.568;10.018;2023-05-20T06:48:37;17.50;63.80
16287;DHT22;8251;53.568;10.018;2023-05-20T06:51:06;17.60;63.70
16287;DHT22;8251;53.568;10.018;2023-05-20T06:53:34;17.70;63.40
16287;DHT22;8251;53.568;10.018;2023-05-20T06:56:01;17.80;63.00
16287;DHT22;8251;53.568;10.018;2023-05-20T06:58:28;17.80;62.90
16287;DHT22;8251;53.568;10.018;2023-05-20T07:00:55;17.80;62.80
16287;DHT22;8251;53.568;10.018;2023-05-20T07:03:22;17.80;62.80
16287;DHT22;8251;53.568;10.018;2023-05-20T07:05:50;17.90;62.90
16287;DHT22;8251;53.568;10.018;2023-05-20T07:08:18;17.90;62.60
16287;DHT22;8251;53.568;10.018;2023-05-20T07:10:48;17.90;62.60
16287;DHT22;8251;53.568;10.018;2023-05-20T07:13:21;18.00;62.60
16287;DHT22;8251;53.568;10.018;2023-05-20T07:15:51;18.00;62.60
16287;DHT22;8251;53.568;10.018;2023-05-20T07:18:18;18.00;62.20
16287;DHT22;8251;53.568;10.018;2023-05-20T07:20:47;18.10;62.00
16287;DHT22;8251;53.568;10.018;2023-05-20T07:23:14;18.10;62.00
16287;DHT22;8251;53.568;10.018;2023-05-20T07:25:42;18.20;61.80
16287;DHT22;8251;53.568;10.018;2023-05-20T07:28:10;18.30;61.40
16287;DHT22;8251;53.568;10.018;2023-05-20T07:30:37;18.40;61.00
16287;DHT22;8251;53.568;10.018;2023-05-20T07:33:04;18.50;60.80
16287;DHT22;8251;53.568;10.018;2023-05-20T07:35:30;18.60;60.70
16287;DHT22;8251;53.568;10.018;2023-05-20T07:37:58;18.70;60.20
16287;DHT22;8251;53.568;10.018;2023-05-20T07:40:25;18.90;59.80
16287;DHT22;8251;53.568;10.018;2023-05-20T07:42:53;19.00;59.60
16287;DHT22;8251;53.568;10.018;2023-05-20T07:45:20;19.20;59.10
16287;DHT22;8251;53.568;10.018;2023-05-20T07:47:47;19.30;58.80
16287;DHT22;8251;53.568;10.018;2023-05-20T07:50:14;19.40;58.30
16287;DHT22;8251;53.568;10.018;2023-05-20T07:52:41;19.50;58.00
16287;DHT22;8251;53.568;10.018;2023-05-20T07:55:08;19.60;58.00
16287;DHT22;8251;53.568;10.018;2023-05-20T07:57:35;19.60;57.90
16287;DHT22;8251;53.568;10.018;2023-05-20T08:00:04;19.70;57.50
16287;DHT22;8251;53.568;10.018;2023-05-20T08:02:31;19.80;57.10
16287;DHT22;8251;53.568;10.018;2023-05-20T08:04:58;20.00;56.80
16287;DHT22;8251;53.568;10.018;2023-05-20T08:07:25;20.10;56.90
16287;DHT22;8251;53.568;10.018;2023-05-20T08:09:52;20.40;56.00
16287;DHT22;8251;53.568;10.018;2023-05-20T08:12:19;20.80;55.10
16287;DHT22;8251;53.568;10.018;2023-05-20T08:14:46;21.20;54.20
16287;DHT22;8251;53.568;10.018;2023-05-20T08:17:15;21.60;53.70
16287;DHT22;8251;53.568;10.018;2023-05-20T08:19:42;21.80;53.30
16287;DHT22;8251;53.568;10.018;2023-05-20T08:22:10;22.00;52.90
16287;DHT22;8251;53.568;10.018;2023-05-20T08:24:37;22.20;51.90
16287;DHT22;8251;53.568;10.018;2023-05-20T08:27:05;22.40;50.30
16287;DHT22;8251;53.568;10.018;2023-05-20T08:29:32;22.50;50.00
16287;DHT22;8251;53.568;10.018;2023-05-20T08:31:59;22.70;49.80
16287;DHT22;8251;53.568;10.018;2023-05-20T08:34:27;22.90;49.10
16287;DHT22;8251;53.568;10.018;2023-05-20T08:36:55;23.10;48.30
16287;DHT22;8251;53.568;10.018;2023-05-20T08:39:23;23.00;48.20
16287;DHT22;8251;53.568;10.018;2023-05-20T08:41:50;22.90;48.50
16287;DHT22;8251;53.568;10.018;2023-05-20T08:44:18;23.00;48.30
16287;DHT22;8251;53.568;10.018;2023-05-20T08:46:47;23.10;47.40
16287;DHT22;8251;53.568;10.018;2023-05-20T08:49:14;23.00;46.50
16287;DHT22;8251;53.568;10.018;2023-05-20T08:51:43;22.80;46.20
16287;DHT22;8251;53.568;10.018;2023-05-20T08:54:12;22.70;46.20
16287;DHT22;8251;53.568;10.018;2023-05-20T08:56:42;22.50;46.60
16287;DHT22;8251;53.568;10.018;2023-05-20T08:59:10;22.50;47.30
16287;DHT22;8251;53.568;10.018;2023-05-20T09:01:41;22.30;47.20
16287;DHT22;8251;53.568;10.018;2023-05-20T09:04:09;22.30;47.30
16287;DHT22;8251;53.568;10.018;2023-05-20T09:06:45;22.40;47.10
16287;DHT22;8251;53.568;10.018;2023-05-20T09:09:12;22.50;47.20
16287;DHT22;8251;53.568;10.018;2023-05-20T09:11:40;22.60;47.40
16287;DHT22;8251;53.568;10.018;2023-05-20T09:14:08;22.70;47.70
16287;DHT22;8251;53.568;10.018;2023-05-20T09:16:35;22.90;48.20
16287;DHT22;8251;53.568;10.018;2023-05-20T09:19:05;23.00;48.30
16287;DHT22;8251;53.568;10.018;2023-05-20T09:21:34;23.20;47.10
16287;DHT22;8251;53.568;10.018;2023-05-20T09:24:03;23.20;47.00
16287;DHT22;8251;53.568;10.018;2023-05-20T09:26:31;23.00;47.30
16287;DHT22;8251;53.568;10.018;2023-05-20T09:28:58;22.80;46.80
16287;DHT22;8251;53.568;10.018;2023-05-20T09:31:26;22.60;47.60
16287;DHT22;8251;53.568;10.018;2023-05-20T09:33:54;22.30;48.00
16287;DHT22;8251;53.568;10.018;2023-05-20T09:36:22;22.10;47.90
16287;DHT22;8251;53.568;10.018;2023-05-20T09:38:52;21.90;47.70
16287;DHT22;8251;53.568;10.018;2023-05-20T09:41:45;21.70;48.40
16287;DHT22;8251;53.568;10.018;2023-05-20T09:44:28;21.50;48.90
16287;DHT22;8251;53.568;10.018;2023-05-20T09:46:59;21.40;49.60
16287;DHT22;8251;53.568;10.018;2023-05-20T09:49:28;21.30;49.60
16287;DHT22;8251;53.568;10.018;2023-05-20T09:51:57;21.20;49.40
16287;DHT22;8251;53.568;10.018;2023-05-20T09:54:25;21.10;49.40
16287;DHT22;8251;53.568;10.018;2023-05-20T09:56:57;21.00;49.70
16287;DHT22;8251;53.568;10.018;2023-05-20T09:59:26;20.90;49.80
16287;DHT22;8251;53.568;10.018;2023-05-20T10:01:58;20.90;50.60
16287;DHT22;8251;53.568;10.018;2023-05-20T10:04:34;20.80;50.20
16287;DHT22;8251;53.568;10.018;2023-05-20T10:07:21;20.70;50.30
16287;DHT22;8251;53.568;10.018;2023-05-20T10:09:58;20.70;50.40
16287;DHT22;8251;53.568;10.018;2023-05-20T10:12:33;20.70;50.90
16287;DHT22;8251;53.568;10.018;2023-05-20T10:15:12;20.60;50.50
16287;DHT22;8251;53.568;10.018;2023-05-20T10:17:45;20.60;50.60
16287;DHT22;8251;53.568;10.018;2023-05-20T10:20:13;20.50;50.90
16287;DHT22;8251;53.568;10.018;2023-05-20T10:22:40;20.30;51.10
16287;DHT22;8251;53.568;10.018;2023-05-20T10:25:11;20.30;51.60
16287;DHT22;8251;53.568;10.018;2023-05-20T10:27:50;20.30;51.60
16287;DHT22;8251;53.568;10.018;2023-05-20T10:30:19;20.40;51.30
16287;DHT22;8251;53.568;10.018;2023-05-20T10:32:53;20.30;51.50
16287;DHT22;8251;53.568;10.018;2023-05-20T10:35:22;20.20;51.50
16287;DHT22;8251;53.568;10.018;2023-05-20T10:37:51;20.20;51.70
16287;DHT22;8251;53.568;10.018;2023-05-20T10:40:19;20.10;52.00
16287;DHT22;8251;53.568;10.018;2023-05-20T10:42:47;20.10;52.00
16287;DHT22;8251;53.568;10.018;2023-05-20T10:45:26;20.10;52.20
16287;DHT22;8251;53.568;10.018;2023-05-20T10:47:54;20.10;52.20
16287;DHT22;8251;53.568;10.018;2023-05-20T10:50:32;20.10;52.40
16287;DHT22;8251;53.568;10.018;2023-05-20T10:53:05;20.10;52.70
16287;DHT22;8251;53.568;10.018;2023-05-20T10:55:36;20.10;52.70
16287;DHT22;8251;53.568;10.018;2023-05-20T10:58:04;20.20;52.70
16287;DHT22;8251;53.568;10.018;2023-05-20T11:00:35;20.20;52.60
16287;DHT22;8251;53.568;10.018;2023-05-20T11:03:03;20.30;52.80
16287;DHT22;8251;53.568;10.018;2023-05-20T11:05:31;20.30;52.30
16287;DHT22;8251;53.568;10.018;2023-05-20T11:08:01;20.40;52.30
16287;DHT22;8251;53.568;10.018;2023-05-20T11:10:29;20.30;52.30
16287;DHT22;8251;53.568;10.018;2023-05-20T11:12:56;20.30;52.20
16287;DHT22;8251;53.568;10.018;2023-05-20T11:15:23;20.30;51.90
16287;DHT22;8251;53.568;10.018;2023-05-20T11:17:53;20.20;51.90
16287;DHT22;8251;53.568;10.018;2023-05-20T11:20:20;20.20;52.20
16287;DHT22;8251;53.568;10.018;2023-05-20T11:22:49;20.20;52.40
16287;DHT22;8251;53.568;10.018;2023-05-20T11:25:17;20.20;52.50
16287;DHT22;8251;53.568;10.018;2023-05-20T11:27:45;20.20;52.50
16287;DHT22;8251;53.568;10.018;2023-05-20T11:30:13;20.10;52.50
16287;DHT22;8251;53.568;10.018;2023-05-20T11:32:41;20.10;52.50
16287;DHT22;8251;53.568;10.018;2023-05-20T11:35:21;20.10;52.10
16287;DHT22;8251;53.568;10.018;2023-05-20T11:37:54;20.10;52.20
16287;DHT22;8251;53.568;10.018;2023-05-20T11:40:23;20.00;52.00
16287;DHT22;8251;53.568;10.018;2023-05-20T11:42:53;20.00;52.10
16287;DHT22;8251;53.568;10.018;2023-05-20T11:45:20;20.00;52.40
16287;DHT22;8251;53.568;10.018;2023-05-20T11:47:58;20.00;52.60
16287;DHT22;8251;53.568;10.018;2023-05-20T11:50:26;20.00;52.70
16287;DHT22;8251;53.568;10.018;2023-05-20T11:52:57;20.00;52.70
16287;DHT22;8251;53.568;10.018;2023-05-20T11:55:25;20.00;52.60
16287;DHT22;8251;53.568;10.018;2023-05-20T11:57:53;20.00;52.80
16287;DHT22;8251;53.568;10.018;2023-05-20T12:00:21;20.00;52.90
16287;DHT22;8251;53.568;10.018;2023-05-20T12:02:48;20.00;53.00
16287;DHT22;8251;53.568;10.018;2023-05-20T12:05:15;20.00;53.20
16287;DHT22;8251;53.568;10.018;2023-05-20T12:07:43;20.00;53.10
16287;DHT22;8251;53.568;10.018;2023-05-20T12:10:11;20.00;52.70
16287;DHT22;8251;53.568;10.018;2023-05-20T12:12:39;19.90;52.80
16287;DHT22;8251;53.568;10.018;2023-05-20T12:15:07;20.00;53.00
16287;DHT22;8251;53.568;10.018;2023-05-20T12:17:46;20.00;52.70
16287;DHT22;8251;53.568;10.018;2023-05-20T12:20:14;20.10;52.90
16287;DHT22;8251;53.568;10.018;2023-05-20T12:22:45;20.00;53.70
16287;DHT22;8251;53.568;10.018;2023-05-20T12:25:13;20.10;53.10
16287;DHT22;8251;53.568;10.018;2023-05-20T12:27:41;20.00;53.40
16287;DHT22;8251;53.568;10.018;2023-05-20T12:30:15;20.00;53.70
16287;DHT22;8251;53.568;10.018;2023-05-20T12:32:42;20.00;53.60
16287;DHT22;8251;53.568;10.018;2023-05-20T12:35:10;20.00;53.60
16287;DHT22;8251;53.568;10.018;2023-05-20T12:37:40;20.10;53.40
16287;DHT22;8251;53.568;10.018;2023-05-20T12:40:11;20.20;53.20
16287;DHT22;8251;53.568;10.018;2023-05-20T12:42:40;20.20;53.00
16287;DHT22;8251;53.568;10.018;2023-05-20T12:45:08;20.30;53.10
16287;DHT22;8251;53.568;10.018;2023-05-20T12:47:35;20.20;52.60
16287;DHT22;8251;53.568;10.018;2023-05-20T12:50:03;20.40;52.90
16287;DHT22;8251;53.568;10.018;2023-05-20T12:52:30;20.50;52.90
16287;DHT22;8251;53.568;10.018;2023-05-20T12:54:57;20.60;52.70
16287;DHT22;8251;53.568;10.018;2023-05-20T12:57:26;20.50;52.60
16287;DHT22;8251;53.568;10.018;2023-05-20T12:59:56;20.60;52.90
16287;DHT22;8251;53.568;10.018;2023-05-20T13:02:30;20.50;53.00
16287;DHT22;8251;53.568;10.018;2023-05-20T13:05:04;20.50;52.70
16287;DHT22;8251;53.568;10.018;2023-05-20T13:07:32;20.40;52.70
16287;DHT22;8251;53.568;10.018;2023-05-20T13:09:59;20.40;53.00
16287;DHT22;8251;53.568;10.018;2023-05-20T13:12:27;20.50;53.20
16287;DHT22;8251;53.568;10.018;2023-05-20T13:14:54;20.50;53.10
16287;DHT22;8251;53.568;10.018;2023-05-20T13:17:21;20.50;52.80
16287;DHT22;8251;53.568;10.018;2023-05-20T13:19:49;20.50;52.80
16287;DHT22;8251;53.568;10.018;2023-05-20T13:22:17;20.50;52.80
16287;DHT22;8251;53.568;10.018;2023-05-20T13:24:44;20.60;53.30
16287;DHT22;8251;53.568;10.018;2023-05-20T13:27:11;20.50;53.20
16287;DHT22;8251;53.568;10.018;2023-05-20T13:29:40;20.60;53.10
16287;DHT22;8251;53.568;10.018;2023-05-20T13:32:08;20.50;53.10
16287;DHT22;8251;53.568;10.018;2023-05-20T13:34:35;20.50;53.10
16287;DHT22;8251;53.568;10.018;2023-05-20T13:37:02;20.60;53.20
16287;DHT22;8251;53.568;10.018;2023-05-20T13:39:29;20.60;53.10
16287;DHT22;8251;53.568;10.018;2023-05-20T13:41:56;20.60;52.70
16287;DHT22;8251;53.568;10.018;2023-05-20T13:44:23;20.60;52.90
16287;DHT22;8251;53.568;10.018;2023-05-20T13:46:52;20.60;53.20
16287;DHT22;8251;53.568;10.018;2023-05-20T13:49:19;20.50;53.40
16287;DHT22;8251;53.568;10.018;2023-05-20T13:51:47;20.60;53.50
16287;DHT22;8251;53.568;10.018;2023-05-20T13:54:14;20.50;53.20
16287;DHT22;8251;53.568;10.018;2023-05-20T13:56:41;20.40;53.30
16287;DHT22;8251;53.568;10.018;2023-05-20T13:59:08;20.40;53.40
16287;DHT22;8251;53.568;10.018;2023-05-20T14:01:35;20.50;53.60
16287;DHT22;8251;53.568;10.018;2023-05-20T14:04:03;20.50;53.40
16287;DHT22;8251;53.568;10.018;2023-05-20T14:06:31;20.50;53.40
16287;DHT22;8251;53.568;10.018;2023-05-20T14:08:57;20.50;53.60
16287;DHT22;8251;53.568;10.018;2023-05-20T14:11:24;20.40;53.60
16287;DHT22;8251;53.568;10.018;2023-05-20T14:13:52;20.40;53.70
16287;DHT22;8251;53.568;10.018;2023-05-20T14:16:19;20.50;54.10
16287;DHT22;8251;53.568;10.018;2023-05-20T14:18:46;20.40;54.00
16287;DHT22;8251;53.568;10.018;2023-05-20T14:21:15;20.50;54.10
16287;DHT22;8251;53.568;10.018;2023-05-20T14:23:45;20.50;54.00
16287;DHT22;8251;53.568;10.018;2023-05-20T14:26:19;20.50;54.10
16287;DHT22;8251;53.568;10.018;2023-05-20T14:28:49;20.50;54.20
16287;DHT22;8251;53.568;10.018;2023-05-20T14:31:16;20.50;54.00
16287;DHT22;8251;53.568;10.018;2023-05-20T14:33:43;20.50;54.10
16287;DHT22;8251;53.568;10.018;2023-05-20T14:36:10;20.40;54.70
16287;DHT22;8251;53.568;10.018;2023-05-20T14:38:39;20.50;55.00
16287;DHT22;8251;53.568;10.018;2023-05-20T14:41:06;20.40;54.40
16287;DHT22;8251;53.568;10.018;2023-05-20T14:43:34;20.40;54.70
16287;DHT22;8251;53.568;10.018;2023-05-20T14:46:01;20.40;54.90
16287;DHT22;8251;53.568;10.018;2023-05-20T14:48:28;20.30;54.90
16287;DHT22;8251;53.568;10.018;2023-05-20T14:50:55;20.30;55.00
16287;DHT22;8251;53.568;10.018;2023-05-20T14:53:22;20.30;55.20
16287;DHT22;8251;53.568;10.018;2023-05-20T14:55:50;20.20;55.50
16287;DHT22;8251;53.568;10.018;2023-05-20T14:58:17;20.20;55.50
16287;DHT22;8251;53.568;10.018;2023-05-20T15:00:44;20.20;55.50
16287;DHT22;8251;53.568;10.018;2023-05-20T15:03:12;20.20;55.60
16287;DHT22;8251;53.568;10.018;2023-05-20T15:05:39;20.20;56.20
16287;DHT22;8251;53.568;10.018;2023-05-20T15:08:07;20.10;56.80
16287;DHT22;8251;53.568;10.018;2023-05-20T15:10:35;20.00;57.80
16287;DHT22;8251;53.568;10.018;2023-05-20T15:13:03;20.00;58.00
16287;DHT22;8251;53.568;10.018;2023-05-20T15:15:30;20.00;58.40
16287;DHT22;8251;53.568;10.018;2023-05-20T15:17:56;19.90;58.50
16287;DHT22;8251;53.568;10.018;2023-05-20T15:20:23;19.80;58.70
16287;DHT22;8251;53.568;10.018;2023-05-20T15:22:50;19.90;58.70
16287;DHT22;8251;53.568;10.018;2023-05-20T15:25:17;19.90;58.70
16287;DHT22;8251;53.568;10.018;2023-05-20T15:27:45;19.90;58.70
16287;DHT22;8251;53.568;10.018;2023-05-20T15:30:16;19.90;58.70
16287;DHT22;8251;53.568;10.018;2023-05-20T15:32:43;20.00;58.70
16287;DHT22;8251;53.568;10.018;2023-05-20T15:35:10;20.00;58.70
16287;DHT22;8251;53.568;10.018;2023-05-20T15:37:37;20.00;58.80